Time;durP1;ratioP1;P1;durP2;ratioP2;P2;SDS_P1;SDS_P2;PMS_P1;PMS_P2;Temp;Humidity;BMP_temperature;BMP_pressure;BME280_temperature;BME280_humidity;BME280_pressure;Samples;Min_cycle;Max_cycle;Signal;HPM_P1;HPM_P2
2022/11/15 14:10:26;;;;;;;49.30;16.88;;;;;;;17.61;89.54;100109.53;5112647;27;20376;-57
2022/11/15 14:12:56;;;;;;;45.30;16.13;;;;;;;17.64;89.36;100103.00;5112637;28;20434;-58
2022/11/15 14:15:33;;;;;;;46.00;15.20;;;;;;;17.69;89.58;100107.03;5111781;28;20059;-54
2022/11/15 14:18:03;;;;;;;42.08;15.07;;;;;;;17.73;88.96;100112.97;5112916;28;20044;-49
2022/11/15 14:20:37;;;;;;;41.45;14.60;;;;;;;17.78;87.68;100104.47;5112481;28;20036;-49
2022/11/15 14:23:21;;;;;;;38.80;14.85;;;;;;;17.86;87.58;100104.63;5112543;28;20039;-47
2022/11/15 14:25:56;;;;;;;41.83;13.87;;;;;;;18.11;86.13;100095.06;5113082;28;20118;-47
2022/11/15 14:28:37;;;;;;;40.97;14.23;;;;;;;18.20;84.63;100100.44;5112469;28;20090;-48
2022/11/15 14:31:13;;;;;;;36.05;14.23;;;;;;;17.99;84.79;100091.69;5112317;28;20070;-46
2022/11/15 14:33:42;;;;;;;46.97;15.57;;;;;;;17.97;84.39;100082.88;5112353;28;20363;-48
2022/11/15 14:36:14;;;;;;;35.78;13.73;;;;;;;17.91;79.46;100088.84;5112707;28;20085;-46
2022/11/15 14:38:44;;;;;;;39.33;14.20;;;;;;;17.96;81.57;100091.97;5112553;28;20488;-45
2022/11/15 14:41:20;;;;;;;42.15;14.02;;;;;;;17.96;83.79;100076.63;5111836;28;20035;-44
2022/11/15 14:43:51;;;;;;;39.25;14.10;;;;;;;17.90;81.38;100081.75;5112503;28;20048;-44
2022/11/15 14:46:21;;;;;;;35.88;14.18;;;;;;;17.83;82.79;100081.44;5112269;28;20047;-54
2022/11/15 14:48:50;;;;;;;37.70;13.43;;;;;;;17.86;84.24;100075.78;5112401;28;20078;-52
2022/11/15 14:51:19;;;;;;;36.70;14.70;;;;;;;17.87;84.69;100066.69;5111729;28;20359;-51
2022/11/15 14:53:49;;;;;;;33.42;14.82;;;;;;;17.87;84.71;100064.00;5111930;28;20101;-54
2022/11/15 14:56:19;;;;;;;30.70;13.73;;;;;;;17.89;84.71;100055.75;5111929;28;20083;-49
2022/11/15 14:58:49;;;;;;;36.28;13.32;;;;;;;17.91;84.55;100051.06;5112107;28;20059;-51
2022/11/15 15:01:21;;;;;;;34.42;13.48;;;;;;;17.88;84.85;100051.38;5111206;28;20056;-55
2022/11/15 15:03:51;;;;;;;32.97;13.75;;;;;;;17.85;85.42;100062.41;5111568;28;20063;-54
2022/11/15 15:06:21;;;;;;;36.20;14.48;;;;;;;17.88;85.18;100062.16;5111788;28;20048;-46
2022/11/15 15:08:50;;;;;;;28.15;13.07;;;;;;;17.89;84.99;100059.31;5110501;28;20063;-51
2022/11/15 15:11:24;;;;;;;29.40;13.80;;;;;;;17.92;84.73;100059.00;5111341;28;20039;-52
2022/11/15 15:13:52;;;;;;;;;;;;;;;17.99;85.00;100062.00;5111079;28;20084;-53
2022/11/15 15:16:22;;;;;;;27.35;12.80;;;;;;;18.02;84.65;100059.00;5111719;28;19931;-54
2022/11/15 15:18:51;;;;;;;31.50;12.70;;;;;;;18.03;84.80;100055.28;5111814;28;20054;-48
2022/11/15 15:21:22;;;;;;;28.95;13.52;;;;;;;18.01;84.25;100046.50;5097353;28;20052;-50
2022/11/15 15:23:53;;;;;;;30.98;12.77;;;;;;;18.05;84.25;100047.94;5098147;28;20094;-49
2022/11/15 15:26:24;;;;;;;33.30;14.00;;;;;;;18.07;84.15;100051.34;5098171;28;20048;-62
2022/11/15 15:28:54;;;;;;;33.75;13.95;;;;;;;18.11;84.12;100038.38;5096763;28;20040;-59
2022/11/15 15:31:23;;;;;;;28.98;12.82;;;;;;;18.10;84.21;100040.22;5097492;28;20055;-56
2022/11/15 15:33:52;;;;;;;30.17;13.57;;;;;;;18.10;84.04;100037.53;5097908;28;20044;-51
2022/11/15 15:36:21;;;;;;;34.15;13.23;;;;;;;18.09;84.36;100048.47;5097709;28;20085;-51
2022/11/15 15:38:50;;;;;;;26.63;12.27;;;;;;;18.07;84.86;100047.78;5097880;28;20055;-51
2022/11/15 15:41:21;;;;;;;31.27;13.43;;;;;;;18.07;84.70;100045.94;5096107;28;20048;-56
2022/11/15 15:43:51;;;;;;;28.98;12.60;;;;;;;18.08;84.61;100054.88;5097508;28;20449;-59
2022/11/15 15:46:21;;;;;;;28.38;13.30;;;;;;;18.06;81.55;100063.13;5097555;28;20516;-62
2022/11/15 15:48:50;;;;;;;30.75;13.20;;;;;;;18.09;83.84;100054.72;5097616;28;20364;-58
2022/11/15 15:51:20;;;;;;;27.17;13.15;;;;;;;18.07;84.20;100051.34;5096755;28;20132;-58
2022/11/15 15:53:51;;;;;;;24.83;13.40;;;;;;;18.02;84.40;100048.19;5097426;28;20059;-56
2022/11/15 15:56:20;;;;;;;25.23;13.23;;;;;;;18.02;84.51;100046.34;5097410;28;20118;-59
2022/11/15 15:58:52;;;;;;;25.05;13.60;;;;;;;18.07;84.07;100040.53;5096146;28;20475;-59
2022/11/15 16:01:23;;;;;;;25.17;12.47;;;;;;;18.07;84.52;100045.94;5096827;28;20055;-58
2022/11/15 16:03:52;;;;;;;25.52;12.52;;;;;;;18.10;84.89;100044.78;5097096;28;20291;-60
2022/11/15 16:06:44;;;;;;;24.25;12.80;;;;;;;18.10;84.14;100040.22;5097921;28;20040;-59
2022/11/15 16:09:15;;;;;;;27.85;12.60;;;;;;;17.99;84.40;100043.94;5093267;28;20079;-55
2022/11/15 16:11:48;;;;;;;31.55;12.43;;;;;;;18.06;83.94;100038.84;5096363;28;20048;-57
2022/11/15 16:14:18;;;;;;;24.35;12.45;;;;;;;18.06;85.50;100032.59;5097323;28;20059;-59
2022/11/15 16:16:47;;;;;;;26.52;12.93;;;;;;;18.06;84.95;100038.00;5096925;28;20052;-51
2022/11/15 16:19:16;;;;;;;26.85;12.43;;;;;;;18.09;85.53;100033.13;5097172;28;20048;-61
2022/11/15 16:21:45;;;;;;;28.70;12.07;;;;;;;18.09;85.30;100032.28;5096183;28;20036;-56
2022/11/15 16:24:17;;;;;;;27.77;12.77;;;;;;;18.08;85.31;100035.97;5097166;28;20048;-57
2022/11/15 16:26:47;;;;;;;27.88;12.52;;;;;;;18.11;84.95;100033.84;5096671;28;20063;-56
2022/11/15 16:29:18;;;;;;;25.38;12.40;;;;;;;18.10;85.67;100039.38;5096747;28;20085;-62
2022/11/15 16:31:48;;;;;;;28.90;12.65;;;;;;;18.08;85.47;100028.75;5094971;28;20048;-59
2022/11/15 16:34:18;;;;;;;24.50;11.27;;;;;;;18.12;85.50;100040.94;5097136;28;20361;-56
2022/11/15 16:36:47;;;;;;;26.35;11.80;;;;;;;18.16;84.74;100038.81;5096791;28;20078;-60
2022/11/15 16:39:18;;;;;;;24.13;11.48;;;;;;;18.14;84.46;100030.84;5096772;28;20044;-56
2022/11/15 16:41:47;;;;;;;26.27;12.23;;;;;;;18.12;85.02;100021.19;5094856;28;20051;-61
2022/11/15 16:44:19;;;;;;;26.23;11.93;;;;;;;18.13;85.21;100026.44;5096447;28;20040;-55
2022/11/15 16:46:50;;;;;;;24.02;12.35;;;;;;;18.12;84.44;100022.03;5096442;28;20453;-54
2022/11/15 16:49:31;;;;;;;26.33;12.75;;;;;;;18.13;84.89;100018.34;5096554;28;20364;-57
2022/11/15 16:52:00;;;;;;;26.88;12.55;;;;;;;18.14;84.76;100016.50;5094372;28;20349;-55
2022/11/15 16:54:29;;;;;;;20.17;11.63;;;;;;;18.17;84.82;100019.75;5095155;28;20052;-64
2022/11/15 16:56:59;;;;;;;23.48;12.35;;;;;;;18.22;84.24;100012.06;5096249;28;20066;-53
2022/11/15 16:59:29;;;;;;;22.23;11.77;;;;;;;18.23;84.15;100008.34;5096366;28;20044;-55
2022/11/15 17:02:10;;;;;;;23.17;12.02;;;;;;;18.23;84.87;100007.50;5095743;28;20047;-60
2022/11/15 17:04:40;;;;;;;23.30;12.18;;;;;;;18.22;85.30;100012.06;5096244;28;20072;-54
2022/11/15 17:07:09;;;;;;;24.55;12.07;;;;;;;18.20;84.29;100005.97;5096313;28;20060;-51
2022/11/15 17:09:41;;;;;;;25.83;12.23;;;;;;;18.21;84.70;99999.56;5096232;28;20048;-54
2022/11/15 17:12:11;;;;;;;26.08;11.50;;;;;;;18.21;85.33;99999.56;5096452;28;20044;-58
2022/11/15 17:14:44;;;;;;;25.55;12.07;;;;;;;18.23;84.83;100000.25;5094342;28;20166;-53
2022/11/15 17:17:13;;;;;;;25.25;12.00;;;;;;;18.23;84.32;100000.25;5096218;28;20471;-53
2022/11/15 17:19:42;;;;;;;19.92;12.18;;;;;;;18.19;84.67;100001.56;5095143;28;20445;-56
2022/11/15 17:22:15;;;;;;;26.85;12.27;;;;;;;18.20;84.56;99992.47;5096210;28;20040;-51
2022/11/15 17:24:45;;;;;;;24.55;11.48;;;;;;;18.23;84.52;99986.75;5096410;28;20093;-51
2022/11/15 17:27:16;;;;;;;30.05;12.35;;;;;;;18.29;84.59;99986.19;5096894;28;20372;-49
2022/11/15 17:29:49;;;;;;;29.23;11.85;;;;;;;18.40;84.14;99982.44;5096378;28;20123;-52
2022/11/15 17:32:19;;;;;;;23.73;11.88;;;;;;;18.36;84.32;99989.16;5095678;28;20139;-53
2022/11/15 17:34:48;;;;;;;29.88;12.57;;;;;;;18.34;84.55;99983.06;5094947;28;20143;-50
2022/11/15 17:37:17;;;;;;;25.60;12.32;;;;;;;18.33;83.17;99984.03;5095892;28;20453;-53
2022/11/15 17:39:47;;;;;;;21.15;12.43;;;;;;;18.21;81.79;99977.97;5095878;28;20044;-66
2022/11/15 17:42:16;;;;;;;25.92;12.50;;;;;;;18.15;82.75;99972.34;5094947;28;20483;-56
2022/11/15 17:44:45;;;;;;;26.33;12.35;;;;;;;18.10;82.31;99975.47;5095330;28;20052;-59
2022/11/15 17:47:16;;;;;;;31.58;12.40;;;;;;;18.09;82.89;99975.59;5093444;28;20066;-59
2022/11/15 17:49:47;;;;;;;24.17;11.65;;;;;;;18.01;84.04;99965.53;5094075;28;20052;-59
2022/11/15 17:52:17;;;;;;;23.60;12.45;;;;;;;17.99;84.45;99963.00;5095240;28;20058;-57
2022/11/15 17:54:45;;;;;;;24.67;12.10;;;;;;;17.97;85.01;99958.75;5095155;28;20055;-66
2022/11/15 17:57:14;;;;;;;22.45;12.15;;;;;;;17.96;84.60;99954.34;5094309;28;20051;-67
2022/11/15 17:59:49;;;;;;;24.95;12.82;;;;;;;17.96;84.42;99952.50;5094004;28;20051;-67
2022/11/15 18:02:19;;;;;;;24.10;11.52;;;;;;;17.97;84.36;99945.25;5092205;28;20357;-61
2022/11/15 18:04:48;;;;;;;22.35;12.40;;;;;;;17.99;84.25;99943.25;5095393;28;20087;-64
2022/11/15 18:07:17;;;;;;;27.90;12.07;;;;;;;17.96;84.56;99940.88;5095032;28;20456;-64
2022/11/15 18:09:47;;;;;;;21.58;12.63;;;;;;;17.91;84.72;99943.13;5093061;28;20480;-59
2022/11/15 18:12:18;;;;;;;27.08;12.18;;;;;;;17.92;84.78;99934.03;5093929;28;20456;-63
2022/11/15 18:14:47;;;;;;;23.63;12.48;;;;;;;17.94;85.04;99934.75;5094101;28;20048;-58
2022/11/15 18:17:17;;;;;;;23.75;12.80;;;;;;;17.94;85.09;99934.75;5094988;28;20052;-60
2022/11/15 18:19:48;;;;;;;21.67;12.50;;;;;;;17.97;84.75;99931.75;5094715;28;20528;-56
2022/11/15 18:22:19;;;;;;;20.92;12.25;;;;;;;17.98;84.48;99941.56;5091877;28;20342;-54
2022/11/15 18:24:49;;;;;;;29.65;12.80;;;;;;;18.02;83.79;99934.84;5095096;28;20067;-57
2022/11/15 18:27:18;;;;;;;27.35;12.48;;;;;;;18.10;83.79;99929.56;5098653;28;20051;-54
2022/11/15 18:29:49;;;;;;;25.10;12.73;;;;;;;18.08;83.86;99930.72;5096648;28;20056;-55
2022/11/15 18:32:22;;;;;;;28.65;12.70;;;;;;;18.05;84.25;99928.31;5093997;28;20059;-52
2022/11/15 18:34:53;;;;;;;24.45;12.93;;;;;;;18.03;84.31;99931.16;5094560;28;20098;-59
2022/11/15 18:37:29;;;;;;;21.33;12.27;;;;;;;18.06;84.29;99921.94;5094240;28;20426;-53
2022/11/15 18:40:01;;;;;;;29.25;12.52;;;;;;;18.10;84.25;99926.88;5092681;28;20346;-56
2022/11/15 18:42:31;;;;;;;24.75;11.82;;;;;;;18.12;84.59;99930.28;5088193;28;20126;-62
2022/11/15 18:45:02;;;;;;;21.73;11.35;;;;;;;18.15;85.22;99924.59;5085690;28;20152;-56
2022/11/15 18:47:32;;;;;;;21.52;12.02;;;;;;;18.15;85.31;99924.59;5102323;28;20044;-60
2022/11/15 18:50:04;;;;;;;23.38;12.25;;;;;;;18.24;84.95;99920.16;5093912;28;20960;-60
2022/11/15 18:52:34;;;;;;;22.13;11.65;;;;;;;18.26;84.75;99924.41;5092674;28;20209;-58
2022/11/15 18:55:09;;;;;;;21.98;12.00;;;;;;;18.28;84.53;99919.69;5095983;28;20072;-59
2022/11/15 18:57:42;;;;;;;22.70;12.25;;;;;;;18.34;85.17;99923.66;5098420;28;20040;-57
2022/11/15 19:00:13;;;;;;;19.52;12.38;;;;;;;18.38;84.81;99916.09;5104136;28;20449;-61
2022/11/15 19:02:42;;;;;;;22.23;12.35;;;;;;;18.46;83.82;99910.78;5085439;28;20048;-58
2022/11/15 19:05:15;;;;;;;19.85;11.80;;;;;;;18.46;84.50;99910.78;5080479;28;20468;-61
2022/11/15 19:07:49;;;;;;;24.02;12.30;;;;;;;18.55;84.25;99905.34;5097867;28;20456;-61
2022/11/15 19:10:18;;;;;;;26.45;12.13;;;;;;;18.55;84.66;99904.50;5097786;28;20488;-59
2022/11/15 19:12:49;;;;;;;22.75;12.70;;;;;;;18.48;84.84;99908.78;5097067;28;20078;-57
2022/11/15 19:15:18;;;;;;;30.15;12.98;;;;;;;18.45;85.43;99898.31;5097599;28;20046;-60
2022/11/15 19:17:50;;;;;;;23.45;12.63;;;;;;;18.48;85.84;99892.59;5095723;28;20479;-58
2022/11/15 19:20:21;;;;;;;22.50;12.27;;;;;;;18.52;85.75;99892.13;5093935;28;20044;-54
2022/11/15 19:22:50;;;;;;;23.35;12.63;;;;;;;18.57;86.00;99899.78;5089496;28;20384;-51
2022/11/15 19:25:22;;;;;;;24.90;12.02;;;;;;;18.63;85.68;99888.38;5096508;28;20091;-57
2022/11/15 19:27:52;;;;;;;21.05;12.55;;;;;;;18.68;85.84;99887.94;5097956;28;20056;-52
2022/11/15 19:30:21;;;;;;;25.70;12.68;;;;;;;18.71;85.48;99888.47;5095896;28;20044;-57
2022/11/15 19:32:51;;;;;;;26.60;13.50;;;;;;;18.74;85.62;99874.69;5096506;28;20059;-54
2022/11/15 19:35:24;;;;;;;30.00;13.55;;;;;;;18.74;85.79;99884.63;5109983;28;20101;-56
2022/11/15 19:37:53;;;;;;;28.30;13.23;;;;;;;18.77;85.44;99877.06;5099673;28;20432;-56
2022/11/15 19:40:24;;;;;;;22.80;12.52;;;;;;;18.76;85.49;99878.06;5096046;28;20052;-57
2022/11/15 19:42:58;;;;;;;28.95;15.15;;;;;;;18.74;85.94;99876.53;5097520;28;20047;-55
2022/11/15 19:45:30;;;;;;;28.08;14.30;;;;;;;18.72;85.94;99879.38;5097318;28;20044;-56
2022/11/15 19:48:00;;;;;;;24.05;14.18;;;;;;;18.76;86.60;99880.78;5097133;28;20048;-57
2022/11/15 19:50:31;;;;;;;26.30;13.68;;;;;;;18.80;86.27;99870.50;5095774;28;20104;-53
2022/11/15 19:53:00;;;;;;;24.20;14.02;;;;;;;18.83;86.03;99876.47;5096115;28;20075;-55
2022/11/15 19:55:30;;;;;;;27.23;15.70;;;;;;;18.81;85.97;99870.34;5095668;28;20059;-58
2022/11/15 19:57:59;;;;;;;28.90;16.25;;;;;;;18.85;86.86;99862.78;5095844;28;20486;-52
2022/11/15 20:00:28;;;;;;;26.88;16.33;;;;;;;18.91;86.63;99861.28;5096132;28;20052;-70
2022/11/15 20:03:00;;;;;;;33.17;16.23;;;;;;;18.93;86.58;99854.75;5096029;28;20044;-60
2022/11/15 20:05:31;;;;;;;30.07;15.93;;;;;;;18.99;86.48;99853.28;5096217;28;20047;-56
2022/11/15 20:08:00;;;;;;;27.50;14.80;;;;;;;19.00;85.38;99847.69;5095848;28;20135;-53
2022/11/15 20:10:51;;;;;;;28.17;15.70;;;;;;;19.01;86.08;99838.63;5095922;28;20102;-55
2022/11/15 20:13:21;;;;;;;29.23;15.85;;;;;;;19.01;85.51;99833.22;5096012;28;20478;-54
2022/11/15 20:15:51;;;;;;;29.33;15.95;;;;;;;18.98;85.76;99835.34;5096222;28;20058;-58
2022/11/15 20:18:20;;;;;;;30.48;16.65;;;;;;;18.95;85.73;99824.88;5096014;28;20136;-50
2022/11/15 20:20:51;;;;;;;27.65;15.90;;;;;;;18.95;86.52;99820.31;5096590;28;20040;-55
2022/11/15 20:23:20;;;;;;;31.00;16.77;;;;;;;18.96;87.13;99821.16;5091356;28;20172;-57
2022/11/15 20:25:50;;;;;;;51.53;22.35;;;;;;;19.01;89.02;99821.53;5078301;28;20060;-53
2022/11/15 20:28:21;;;;;;;91.30;34.95;;;;;;;19.06;91.38;99814.66;5076260;28;20048;-59
2022/11/15 20:30:53;;;;;;;120.38;45.60;;;;;;;19.12;94.18;99813.19;5090259;28;20044;-53
2022/11/15 20:33:24;;;;;;;111.40;44.42;;;;;;;19.16;95.27;99817.25;5093347;28;20047;-57
2022/11/15 20:35:54;;;;;;;116.45;42.78;;;;;;;19.20;94.51;99810.50;5079901;28;20373;-55
2022/11/15 20:38:23;;;;;;;108.80;42.60;;;;;;;19.23;94.69;99810.22;5090016;28;20052;-58
2022/11/15 20:40:53;;;;;;;109.47;40.20;;;;;;;19.27;94.55;99803.47;5096148;28;20054;-51
2022/11/15 20:43:28;;;;;;;103.82;39.28;;;;;;;19.22;91.22;99804.97;5095475;28;20072;-51
2022/11/15 20:45:57;;;;;;;101.65;38.40;;;;;;;19.12;90.63;99805.94;5095218;28;20052;-55
2022/11/15 20:48:26;;;;;;;104.07;37.47;;;;;;;19.15;92.42;99807.47;5095186;28;20052;-58
2022/11/15 20:51:06;;;;;;;88.25;36.50;;;;;;;19.18;91.31;99801.72;5096120;28;20059;-54
2022/11/15 20:53:35;;;;;;;90.55;35.60;;;;;;;19.23;92.21;99802.13;5096562;28;20467;-58
2022/11/15 20:56:07;;;;;;;84.18;33.72;;;;;;;19.29;92.31;99790.63;5096082;28;20126;-55
2022/11/15 20:58:37;;;;;;;87.85;35.40;;;;;;;19.27;93.37;99792.66;5078539;28;20101;-58
2022/11/15 21:01:07;;;;;;;90.40;34.35;;;;;;;19.28;92.33;99791.66;5095093;28;20445;-57
2022/11/15 21:03:36;;;;;;;78.70;32.85;;;;;;;19.38;93.99;99789.69;5095426;28;20459;-62
2022/11/15 21:06:07;;;;;;;84.13;32.90;;;;;;;19.41;92.61;99788.53;5095498;28;20052;-47
2022/11/15 21:14:05;;;;;;;75.80;31.40;;;;;;;19.23;93.98;99785.88;5076973;28;20062;-68
2022/11/15 21:16:38;;;;;;;82.22;30.45;;;;;;;19.19;92.76;99783.66;5083613;28;20139;-68
2022/11/15 21:19:08;;;;;;;69.90;28.90;;;;;;;19.12;93.01;99783.44;5085202;28;20047;-67
2022/11/15 21:21:39;;;;;;;72.18;29.48;;;;;;;19.03;91.81;99773.59;5081741;28;20043;-68
2022/11/15 21:24:09;;;;;;;71.28;28.75;;;;;;;18.98;92.00;99767.78;5080060;28;20063;-69
2022/11/15 21:26:38;;;;;;;68.18;29.45;;;;;;;18.94;92.02;99769.13;5094705;28;20399;-70
2022/11/15 21:29:08;;;;;;;64.30;28.58;;;;;;;18.91;91.21;99772.13;5096817;28;20093;-71
2022/11/15 21:31:36;;;;;;;61.17;28.63;;;;;;;18.88;91.40;99763.34;5095134;28;20044;-73
2022/11/15 21:34:06;;;;;;;62.25;27.40;;;;;;;18.79;91.62;99761.56;5096595;28;20066;-70
2022/11/15 21:36:35;;;;;;;59.63;28.65;;;;;;;18.74;92.91;99761.22;5094842;28;20107;-70
2022/11/15 21:39:05;;;;;;;68.53;29.92;;;;;;;18.75;92.52;99765.59;5096044;28;20097;-71
2022/11/15 21:41:35;;;;;;;72.32;27.90;;;;;;;18.69;92.79;99755.41;5096069;28;20059;-69
2022/11/15 21:44:05;;;;;;;67.50;27.20;;;;;;;18.69;93.07;99751.84;5095708;28;20047;-70
2022/11/15 21:46:36;;;;;;;63.08;27.88;;;;;;;18.68;92.29;99753.72;5096026;28;20058;-69
2022/11/15 21:49:06;;;;;;;64.18;27.80;;;;;;;18.65;92.63;99748.63;5096123;28;20055;-72
2022/11/15 21:51:35;;;;;;;59.35;27.38;;;;;;;18.62;92.06;99753.44;5094751;28;20071;-69
2022/11/15 21:54:06;;;;;;;67.43;27.50;;;;;;;18.55;92.75;99750.53;5096622;28;20058;-70
2022/11/15 21:56:35;;;;;;;62.45;27.17;;;;;;;18.50;92.11;99751.00;5095968;28;20456;-71
2022/11/15 21:59:05;;;;;;;61.50;27.98;;;;;;;18.50;92.40;99756.41;5094550;28;20048;-72
2022/11/15 22:04:22;;;;;;;56.25;26.13;;;;;;;18.40;91.94;99752.06;5095556;28;20097;-71
2022/11/15 22:06:51;;;;;;;55.95;26.20;;;;;;;18.39;92.02;99753.09;5095409;28;20464;-71
2022/11/15 22:09:23;;;;;;;53.50;25.98;;;;;;;18.38;91.12;99751.38;5095056;28;20105;-69
2022/11/15 22:11:52;;;;;;;53.70;26.23;;;;;;;18.35;91.26;99749.00;5095333;28;20036;-72
2022/11/15 22:14:21;;;;;;;51.80;25.73;;;;;;;18.31;91.62;99762.78;5095414;28;20372;-73
2022/11/15 22:16:52;;;;;;;53.55;25.05;;;;;;;18.27;92.13;99764.13;5095626;28;20048;-74
2022/11/15 22:19:21;;;;;;;52.58;24.67;;;;;;;18.25;91.76;99752.63;5095217;28;20082;-71
2022/11/15 22:21:53;;;;;;;57.60;25.67;;;;;;;18.18;91.94;99743.44;5095597;28;20044;-72
2022/11/15 22:24:23;;;;;;;46.92;25.45;;;;;;;18.12;92.78;99738.63;5083919;28;20044;-71
